ePrivacy and GPDR Cookie Consent by Cookie Consent
EmailTwitter


Surface observations / Quebec / CYUL (71627)

Regions: Quebec | Canada | USA | Europe | France | UK | Elsewhere
Station
Display
Info & Location for CYUL (71627) | Help decoding METAR

Weather Conditions observed on 2022/06/25 at 01:00 UTC at MONTREAL INTL A, QB (CYUL)

Sky conditions: variable clouds.

Temperature: 23.0 Celsius.

Dewpoint: 15.0 Celsius.

Relative Humidity: 61%

Humidex 27.

Winds: West-southwest at 13 km/h or 7 knots.

Mean Sea level Pressure: 101.56 kilopascals.

Altimeter Setting (QNH): 101.56 kilopascals or 29.99 inches of mercury.

Horizontal visibility: 30.00 statute miles or 48.00 kilometers.

Coded METAR:

CYUL 250100Z 25007KT 30SM FEW120 SCT250 23/15 A2999 RMK AC1CI2 CC ASOCTD SLP156

DENSITY ALT 1100FT=